Golden, TX (75444)

10:34 AM CST on December 03, 2016 (GMT -0600)
Ray Branch - Lake Fork | | Change Station

Elev 420 ft 32.81 °N, 95.58 °W | Updated 14 minutes ago

Light Rain
Light Rain Mist
49.2 °F
Feels Like 45 °F
N
9.0
Wind Variable Wind from ESE
Gusts 10.0 mph

Today
High -- | Low -- °F
--% Chance of Precip.
Yesterday
High -- | Low -- °F
Precip. -- in
Pressure 30.10 in
Visibility 7.0 miles
Clouds Overcast 600 ft
Windchill 45 °F
Dew Point 48 °F
Humidity 96%
Rainfall 0.69 in
Snow Depth Not available.
7:08 AM 5:15 PM
Waxing Crescent, 16% visible
METAR KJDD 031615Z AUTO 07004G15KT 7SM -RA BR OVC006 09/08 A3010 RMK AO2 P0003
Pressure 30.10 in
Visibility 7.0 miles
Clouds Overcast 600 ft
Windchill 45 °F
Dew Point 48 °F
Humidity 96%
Rainfall 0.69 in
Snow Depth Not available.
7:08 AM 5:15 PM
Waxing Crescent, 16% visible
METAR KJDD 031615Z AUTO 07004G15KT 7SM -RA BR OVC006 09/08 A3010 RMK AO2 P0003

10-Day Weather Forecast

Almanac

Astronomy

Dec. 03, 2016 Rise Set
Actual Time
Civil Twilight
Nautical Twilight
Astronomical Twilight
Moon
Length of Visible Light
Length of Day
Tomorrow will be .
, % of the Moon is Illuminated

Today's Extremes

State Highs State Lows

Community

WunderPhotos

Upload Photos

1,955,440 photos uploaded!

WunderBlog® & News

Nearby

Air Quality

  Air Quality AQ Index Pollutant
Not available.

Snow Depth

Station Depth Elevation

Earthquake Activity

City Distance Mag. Time & Date
Minimum magnitude displayed is 2.5.

Coastal Water Temperatures

Place Temperature

Stations

Nearby Weather Stations

Station Location Temp. Windchill Dew Point Humidity Wind Precip. Elev Updated Type
                   

Watches & Warnings

There are currently no watches in effect.